createdAt,value
2022-10-19T00:01:48.456Z,23
2022-10-19T00:07:06.932Z,23
2022-10-19T00:12:25.733Z,23
2022-10-19T00:17:44.470Z,23
2022-10-19T00:23:02.681Z,23
2022-10-19T00:28:21.464Z,23
2022-10-19T00:33:40.210Z,23
2022-10-19T00:38:58.134Z,23
2022-10-19T00:44:16.928Z,23
2022-10-19T00:49:35.115Z,23
2022-10-19T00:54:53.880Z,23
2022-10-19T01:00:12.113Z,23
2022-10-19T01:05:30.586Z,23
2022-10-19T01:10:49.066Z,23
2022-10-19T01:16:07.589Z,23
2022-10-19T01:21:26.047Z,23
2022-10-19T01:26:44.258Z,23
2022-10-19T01:32:02.490Z,23
2022-10-19T01:37:20.946Z,23
2022-10-19T01:42:39.442Z,23
2022-10-19T01:47:57.673Z,23
2022-10-19T01:53:16.413Z,23
2022-10-19T01:58:35.188Z,22.9
2022-10-19T02:03:53.992Z,22.9
2022-10-19T02:09:12.733Z,23
2022-10-19T02:14:31.220Z,23
2022-10-19T02:19:49.724Z,23
2022-10-19T02:25:08.191Z,23
2022-10-19T02:30:26.694Z,23
2022-10-19T02:35:45.479Z,23
2022-10-19T02:41:04.218Z,23
2022-10-19T02:46:23.016Z,23
2022-10-19T02:51:41.486Z,23
2022-10-19T02:56:59.682Z,23
2022-10-19T03:02:18.441Z,23
2022-10-19T03:07:37.296Z,23
2022-10-19T03:12:56.170Z,23
2022-10-19T03:18:19.914Z,23
2022-10-19T03:23:38.421Z,23
2022-10-19T03:28:57.233Z,23
2022-10-19T03:34:15.740Z,23
2022-10-19T03:39:33.689Z,23
2022-10-19T03:44:51.882Z,23
2022-10-19T03:50:10.658Z,23
2022-10-19T03:55:29.179Z,23
2022-10-19T04:00:47.710Z,23
2022-10-19T04:06:06.211Z,23
2022-10-19T04:11:24.723Z,23
2022-10-19T04:16:43.019Z,23
2022-10-19T04:22:01.489Z,23
2022-10-19T04:27:19.988Z,23.1
2022-10-19T04:32:38.456Z,23.1
2022-10-19T04:37:57.220Z,23.1
2022-10-19T04:43:16.018Z,23.1
2022-10-19T04:48:34.765Z,22.2
2022-10-19T04:53:58.519Z,21.8
2022-10-19T04:59:18.488Z,21.4
2022-10-19T05:04:36.371Z,21.6
2022-10-19T05:09:56.272Z,21.9
2022-10-19T05:15:15.060Z,22
2022-10-19T05:20:33.811Z,22.1
2022-10-19T05:25:52.295Z,22.1
2022-10-19T05:31:10.572Z,22.2
2022-10-19T05:36:28.748Z,22.2
2022-10-19T05:41:47.226Z,22.3
2022-10-19T05:47:05.747Z,22.4
2022-10-19T05:52:24.194Z,22.5
2022-10-19T05:57:42.664Z,22.5
2022-10-19T06:03:01.205Z,22.5
2022-10-19T06:08:19.403Z,22.6
2022-10-19T06:13:37.875Z,22.6
2022-10-19T06:18:56.094Z,22.7
2022-10-19T06:24:14.833Z,22.7
2022-10-19T06:29:33.313Z,22.8
2022-10-19T06:34:56.943Z,22.8
2022-10-19T06:40:15.268Z,22.9
2022-10-19T06:45:36.238Z,23
2022-10-19T06:50:54.753Z,23
2022-10-19T06:56:12.936Z,23
2022-10-19T07:01:31.236Z,23.1
2022-10-19T07:06:49.737Z,23.1
2022-10-19T07:12:07.652Z,23.1
2022-10-19T07:17:26.121Z,23.1
2022-10-19T07:22:44.638Z,23.2
2022-10-19T07:28:03.376Z,23.2
2022-10-19T07:33:21.854Z,23.3
2022-10-19T07:38:40.080Z,23.3
2022-10-19T07:43:58.420Z,23.3
2022-10-19T07:49:17.200Z,23.4
2022-10-19T07:54:35.994Z,23.4
2022-10-19T07:59:53.894Z,23.4
2022-10-19T08:05:13.300Z,23.5
2022-10-19T08:10:32.688Z,23.5
2022-10-19T08:15:51.486Z,23.5
2022-10-19T08:21:09.964Z,23.6
2022-10-19T08:26:28.459Z,23.6
2022-10-19T08:31:47.199Z,23.6
2022-10-19T08:37:39.911Z,23.7
2022-10-19T08:43:05.889Z,23.7
2022-10-19T08:48:29.883Z,23.7
2022-10-19T08:53:48.651Z,23.7
2022-10-19T08:59:07.347Z,23.8
2022-10-19T09:04:25.532Z,23.8
2022-10-19T09:09:43.929Z,23.8
2022-10-19T09:15:02.426Z,23.9
2022-10-19T09:20:20.323Z,23.9
2022-10-19T09:25:38.244Z,23.9
2022-10-19T09:30:56.471Z,23.9
2022-10-19T09:36:33.219Z,23.9
2022-10-19T09:42:08.157Z,24
2022-10-19T09:47:26.403Z,24
2022-10-19T09:52:44.849Z,24
2022-10-19T09:58:03.340Z,24
2022-10-19T10:03:21.763Z,24
2022-10-19T10:08:40.130Z,24
2022-10-19T10:13:59.120Z,24
2022-10-19T10:19:17.641Z,24
2022-10-19T10:24:36.097Z,24
2022-10-19T10:29:54.301Z,24
2022-10-19T10:35:15.632Z,24
2022-10-19T10:40:34.392Z,24
2022-10-19T10:45:52.887Z,24
2022-10-19T10:51:11.600Z,24
2022-10-19T10:56:30.324Z,24
2022-10-19T11:01:48.665Z,24
2022-10-19T11:06:51.549Z,24
2022-10-19T11:12:09.718Z,24
2022-10-19T11:17:28.220Z,24
2022-10-19T11:22:46.165Z,24
2022-10-19T11:28:04.358Z,24
2022-10-19T11:33:23.122Z,24
2022-10-19T11:38:41.922Z,24
2022-10-19T11:44:00.365Z,24
2022-10-19T11:49:18.571Z,24
2022-10-19T11:54:36.814Z,24
2022-10-19T12:00:08.656Z,24
2022-10-19T12:05:51.827Z,24
2022-10-19T12:11:10.050Z,23.9
2022-10-19T12:16:28.243Z,23.9
2022-10-19T12:21:47.007Z,23.9
2022-10-19T12:27:05.623Z,23.9
2022-10-19T12:32:24.089Z,23.8
2022-10-19T12:37:42.583Z,23.8
2022-10-19T12:43:00.827Z,23.8
2022-10-19T12:48:19.276Z,23.8
2022-10-19T12:53:37.478Z,23.7
2022-10-19T12:58:55.710Z,23.7
2022-10-19T13:04:14.153Z,23.7
2022-10-19T13:09:32.635Z,23.7
2022-10-19T13:14:51.146Z,23.7
2022-10-19T13:20:09.904Z,23.7
2022-10-19T13:25:29.256Z,23.7
2022-10-19T13:30:47.481Z,23.6
2022-10-19T13:36:08.701Z,23.6
2022-10-19T13:41:27.144Z,23.6
2022-10-19T13:46:45.939Z,23.6
2022-10-19T13:52:04.398Z,23.6
2022-10-19T13:57:22.610Z,23.5
2022-10-19T14:02:41.391Z,23.5
2022-10-19T14:07:59.832Z,23.5
2022-10-19T14:13:18.293Z,23.5
2022-10-19T14:18:36.535Z,23.5
2022-10-19T14:23:54.988Z,23.5
2022-10-19T14:29:13.476Z,23.5
2022-10-19T14:34:31.712Z,23.4
2022-10-19T14:39:49.882Z,23.4
2022-10-19T14:45:08.075Z,23.4
2022-10-19T14:50:26.756Z,23.4
2022-10-19T14:55:44.975Z,23.4
2022-10-19T15:01:03.442Z,23.3
2022-10-19T15:06:21.954Z,23.3
2022-10-19T15:11:40.108Z,23.3
2022-10-19T15:16:58.315Z,23.2
2022-10-19T15:22:16.569Z,23.2
2022-10-19T15:27:35.011Z,23.2
2022-10-19T15:32:53.444Z,23.2
2022-10-19T15:38:11.964Z,23.2
2022-10-19T15:43:30.413Z,23.2
2022-10-19T15:48:53.829Z,23.2
2022-10-19T15:54:14.206Z,23.2
2022-10-19T15:59:32.956Z,23.2
2022-10-19T16:04:51.881Z,23.2
2022-10-19T16:10:13.053Z,23.2
2022-10-19T16:15:30.931Z,23.2
2022-10-19T16:20:49.421Z,23.1
2022-10-19T16:26:08.205Z,23.2
2022-10-19T16:31:26.930Z,23.1
2022-10-19T16:36:45.405Z,23.1
2022-10-19T16:42:03.929Z,23.1
2022-10-19T16:47:22.112Z,23.1
2022-10-19T16:52:40.587Z,23.1
2022-10-19T16:57:59.086Z,23.1
2022-10-19T17:03:16.994Z,23.1
2022-10-19T17:09:36.971Z,23.1
2022-10-19T17:15:42.784Z,23.2
2022-10-19T17:21:02.054Z,23.2
2022-10-19T17:26:20.742Z,23.2
2022-10-19T17:31:39.516Z,23.2
2022-10-19T17:36:57.970Z,23.2
2022-10-19T17:42:16.460Z,23.2
2022-10-19T17:47:35.531Z,23.2
2022-10-19T17:52:54.597Z,23.2
2022-10-19T17:58:13.055Z,23.2
2022-10-19T18:03:31.517Z,23.3
2022-10-19T18:08:49.495Z,23.2
2022-10-19T18:14:08.339Z,23.2
2022-10-19T18:19:27.104Z,23.2
2022-10-19T18:24:45.556Z,23.2
2022-10-19T18:30:03.765Z,23.2
2022-10-19T18:35:22.595Z,23.2
2022-10-19T18:40:41.040Z,23.1
2022-10-19T18:46:00.122Z,23.1
2022-10-19T18:51:18.051Z,23.2
2022-10-19T18:56:20.635Z,23.2
2022-10-19T19:01:39.420Z,23
2022-10-19T19:06:57.692Z,23
2022-10-19T19:12:00.253Z,23
2022-10-19T19:17:18.735Z,23
2022-10-19T19:22:37.828Z,23
2022-10-19T19:27:56.641Z,23.1
2022-10-19T19:33:14.807Z,23.1
2022-10-19T19:38:33.304Z,23.1
2022-10-19T19:43:51.752Z,23.1
2022-10-19T19:49:10.244Z,23
2022-10-19T19:54:28.166Z,23.1
2022-10-19T19:59:46.634Z,23.1
2022-10-19T20:05:04.844Z,23.1
2022-10-19T20:10:23.148Z,23.1
2022-10-19T20:15:41.331Z,23.1
2022-10-19T20:20:59.539Z,23.1
2022-10-19T20:26:17.778Z,23.1
2022-10-19T20:31:35.967Z,23.1
2022-10-19T20:36:54.447Z,23.1
2022-10-19T20:42:12.949Z,23.1
2022-10-19T20:47:31.689Z,23.1
2022-10-19T20:52:51.568Z,23.1
2022-10-19T20:58:10.088Z,23.1
2022-10-19T21:03:28.265Z,23.1
2022-10-19T21:08:46.864Z,23
2022-10-19T21:14:05.256Z,23
2022-10-19T21:19:24.041Z,23
2022-10-19T21:24:42.519Z,23
2022-10-19T21:30:00.760Z,23
2022-10-19T21:35:19.201Z,23
2022-10-19T21:40:37.955Z,23
2022-10-19T21:45:56.479Z,23
2022-10-19T21:51:14.662Z,23.1
2022-10-19T21:56:32.858Z,23.1
2022-10-19T22:01:51.956Z,23.1
2022-10-19T22:07:10.953Z,23.1
2022-10-19T22:12:29.701Z,23.2
2022-10-19T22:17:48.223Z,23.2
2022-10-19T22:23:06.137Z,23.2
2022-10-19T22:28:24.618Z,23.2
2022-10-19T22:33:43.126Z,23.2
2022-10-19T22:39:01.040Z,23.2
2022-10-19T22:44:19.522Z,23.2
2022-10-19T22:49:37.764Z,23.2
2022-10-19T22:54:56.071Z,23.2
2022-10-19T23:00:14.270Z,23.2
2022-10-19T23:05:32.525Z,23.2
2022-10-19T23:10:51.014Z,23.2
2022-10-19T23:16:09.503Z,23.2
2022-10-19T23:21:28.011Z,23.2
2022-10-19T23:26:46.196Z,23.2
2022-10-19T23:32:04.682Z,23.2
2022-10-19T23:37:23.459Z,23.2
2022-10-19T23:42:41.648Z,23.2
2022-10-19T23:47:59.571Z,23.2
2022-10-19T23:53:17.797Z,23.2
2022-10-19T23:58:36.272Z,23.2
